Portada
METAR-TAF:

METAR-TAF

Aeropuertos :

Tivat, Montenegro

latitud: 42-24N, longitud: 018-44E, altitud: 5 m

Observación

El informe se hizo hace 32 minutos, a las 12:30 UTC
Viento 4 kt del noroeste, variando entre oeste y norte
Temperatura 14°C
Humedad 44%
Presión 1023 hPa
Visibilidad 10 km o más
sin nubes por debajo de 1500 m y sin presencia de cumulonimbus.

METAR: LYTV 171230Z 32004KT 280V350 CAVOK 14/02 Q1023 NOSIG

Hora: 14:02 (13:02 UTC)

Pronóstico

El informe se hizo hace 2 horas y 2 minutos, a las 11:00 UTC
Pronóstico válido del 17 a las 12 UTC al 18 a las 12 UTC
Viento 6 kt del oeste
Visibilidad 10 km o más
sin nubes por debajo de 1500 m y sin presencia de cumulonimbus.
Probabilidad 40% :
Temporalmente
del 18 a las 04 UTC al 18 a las 07 UTC

TAF: LYTV 171100Z 1712/1812 28006KT CAVOK TX15/1712Z TNM02/1804Z PROB40 TEMPO 1804/1807 2000BR

Observaciones y pronósticos meteorológicos de más de 4000 aeropuertos (mensajes METAR y TAF).

Los puntos amarillos y rojos representan las estaciones disponibles.

Ponga el ratón en el punto deseado para ver el nombre de la estación.

Haga clic para ver las observaciones y los pronósticos meteorológicos.

Para cambiar el mapa : haga clic en los botones verdes con una cruz de color negro para hacer un zoom, en el botón verde con un guión para alejar o en las flechas verdes para mapas adyacentes.


METAR-TAF: